Time;durP1;ratioP1;P1;durP2;ratioP2;P2;SDS_P1;SDS_P2;PMS_P1;PMS_P2;Temp;Humidity;BMP_temperature;BMP_pressure;BME280_temperature;BME280_humidity;BME280_pressure;Samples;Min_cycle;Max_cycle;Signal;HPM_P1;HPM_P2
2022/01/26 00:06:41;;;;;;;24.20;8.75;;;;;;;;;;5071050;28;20029;-37
2022/01/26 00:09:07;;;;;;;24.05;10.45;;;;;;;;;;5071162;28;20469;-37
2022/01/26 00:11:33;;;;;;;19.23;9.25;;;;;;;;;;5070574;28;20028;-37
2022/01/26 00:14:01;;;;;;;29.08;10.30;;;;;;;;;;5070954;28;20442;-37
2022/01/26 00:16:28;;;;;;;20.00;8.25;;;;;;;;;;5070578;28;20033;-37
2022/01/26 00:18:58;;;;;;;19.83;9.80;;;;;;;;;;5070733;28;20024;-37
2022/01/26 00:21:34;;;;;;;18.58;9.95;;;;;;;;;;5070940;28;20029;-37
2022/01/26 00:29:08;;;;;;;26.23;9.43;;;;;;;;;;5074120;28;20067;-37
2022/01/26 00:39:47;;;;;;;23.98;9.20;;;;;;;;;;5074307;28;20033;-37
2022/01/26 00:42:12;;;;;;;20.88;9.45;;;;;;;;;;5073794;28;20056;-37
2022/01/26 00:44:43;;;;;;;24.90;9.45;;;;;;;;;;5074167;28;20033;-37
2022/01/26 00:47:08;;;;;;;13.35;7.60;;;;;;;;;;5074004;28;20547;-37
2022/01/26 00:49:34;;;;;;;23.95;9.63;;;;;;;;;;5073915;28;20119;-37
2022/01/26 00:51:59;;;;;;;21.80;9.27;;;;;;;;;;5074395;28;20074;-37
2022/01/26 00:54:27;;;;;;;20.10;8.68;;;;;;;;;;5074171;28;20024;-37
2022/01/26 00:56:52;;;;;;;22.17;9.95;;;;;;;;;;5089539;28;20024;-37
2022/01/26 00:59:17;;;;;;;24.02;9.48;;;;;;;;;;5074026;28;20421;-37
2022/01/26 01:01:45;;;;;;;17.33;8.52;;;;;;;;;;5073872;28;20032;-37
2022/01/26 01:04:11;;;;;;;21.98;11.23;;;;;;;;;;5073601;28;20126;-37
2022/01/26 01:06:45;;;;;;;24.10;9.77;;;;;;;;;;5073858;28;20501;-37
2022/01/26 01:09:10;;;;;;;18.33;9.02;;;;;;;;;;5073953;28;20330;-37
2022/01/26 01:11:36;;;;;;;22.75;9.63;;;;;;;;;;5073355;28;20021;-37
2022/01/26 01:14:01;;;;;;;15.27;7.57;;;;;;;;;;5073513;28;20543;-37
2022/01/26 01:16:28;;;;;;;19.52;11.07;;;;;;;;;;5073372;28;20032;-38
2022/01/26 01:29:25;;;;;;;24.60;10.95;;;;;;;;;;5073324;28;20021;-37
2022/01/26 01:31:59;;;;;;;20.00;9.90;;;;;;;;;;5073071;28;20021;-37
2022/01/26 01:34:27;;;;;;;19.80;9.85;;;;;;;;;;5073054;28;20028;-37
2022/01/26 01:36:54;;;;;;;20.75;9.88;;;;;;;;;;5073260;28;20375;-37
2022/01/26 01:39:20;;;;;;;21.75;8.55;;;;;;;;;;5073283;28;20028;-37
2022/01/26 01:41:47;;;;;;;23.75;8.60;;;;;;;;;;5072941;28;20434;-37
2022/01/26 01:44:13;;;;;;;17.75;8.20;;;;;;;;;;5072890;28;20051;-37
2022/01/26 01:46:40;;;;;;;21.05;9.20;;;;;;;;;;5072787;28;20028;-37
2022/01/26 01:49:06;;;;;;;18.80;8.50;;;;;;;;;;5073054;28;20033;-37
2022/01/26 01:51:37;;;;;;;17.17;8.15;;;;;;;;;;5088501;28;20048;-37
2022/01/26 01:54:03;;;;;;;18.92;9.20;;;;;;;;;;5072632;28;20381;-38
2022/01/26 01:56:28;;;;;;;24.70;10.90;;;;;;;;;;5072602;28;20449;-37
2022/01/26 01:58:57;;;;;;;22.50;9.70;;;;;;;;;;5072748;28;20029;-37
2022/01/26 02:01:22;;;;;;;18.33;8.43;;;;;;;;;;5072423;28;20012;-37
2022/01/26 02:03:48;;;;;;;21.52;10.43;;;;;;;;;;5072657;28;20043;-37
2022/01/26 02:06:13;;;;;;;16.88;8.75;;;;;;;;;;5072500;28;20025;-37
2022/01/26 02:08:42;;;;;;;18.02;8.63;;;;;;;;;;5072303;28;20016;-37
2022/01/26 02:11:10;;;;;;;23.92;10.60;;;;;;;;;;5072468;28;20064;-37
2022/01/26 02:14:03;;;;;;;27.70;10.00;;;;;;;;;;5070897;28;20056;-37
2022/01/26 02:16:28;;;;;;;15.55;8.13;;;;;;;;;;5072026;28;20391;-37
2022/01/26 02:19:19;;;;;;;;;;;;;;;;;;5072672;28;20054;-37
2022/01/26 03:02:25;;;;;;;19.42;9.30;;;;;;;;;;5071432;28;20090;-37
2022/01/26 03:04:54;;;;;;;17.92;7.28;;;;;;;;;;5071551;28;20492;-37
2022/01/26 03:10:05;;;;;;;20.88;9.82;;;;;;;;;;5071502;28;20043;-37
2022/01/26 03:12:43;;;;;;;25.75;9.82;;;;;;;;;;5071143;28;20036;-37
2022/01/26 03:15:17;;;;;;;18.08;9.27;;;;;;;;;;5071710;28;20056;-37
2022/01/26 03:18:49;;;;;;;20.30;9.65;;;;;;;;;;5071125;28;20499;-37
2022/01/26 03:20:30;;;;;;;18.48;9.05;;;;;;;;;;5063889;28;20079;-37
2022/01/26 03:28:37;;;;;;;20.02;9.82;;;;;;;;;;5071237;28;20021;-37
2022/01/26 03:36:24;;;;;;;19.02;8.43;;;;;;;;;;5071192;28;20032;-37
2022/01/26 03:38:58;;;;;;;20.67;7.95;;;;;;;;;;5071038;28;20052;-37
2022/01/26 03:41:48;;;;;;;23.98;9.93;;;;;;;;;;5070992;28;20029;-37
2022/01/26 03:44:14;;;;;;;16.98;9.35;;;;;;;;;;5070948;28;20131;-37
2022/01/26 03:46:40;;;;;;;25.30;10.25;;;;;;;;;;5071308;28;20203;-37
2022/01/26 03:49:06;;;;;;;16.02;7.88;;;;;;;;;;5070907;28;20036;-37
2022/01/26 03:51:32;;;;;;;21.08;8.98;;;;;;;;;;5071159;28;20066;-37
2022/01/26 03:53:57;;;;;;;16.52;9.45;;;;;;;;;;5070984;28;20025;-37
2022/01/26 03:56:22;;;;;;;21.65;10.05;;;;;;;;;;5071013;28;20035;-37
2022/01/26 03:58:48;;;;;;;19.50;9.15;;;;;;;;;;5070934;28;20048;-37
2022/01/26 04:01:13;;;;;;;18.25;9.82;;;;;;;;;;5072437;28;20032;-37
2022/01/26 04:03:38;;;;;;;22.00;9.88;;;;;;;;;;5074931;28;20037;-37
2022/01/26 04:06:04;;;;;;;18.88;9.52;;;;;;;;;;5074889;28;20028;-37
2022/01/26 04:08:32;;;;;;;17.80;8.60;;;;;;;;;;5075009;28;20455;-37
2022/01/26 04:13:32;;;;;;;25.98;9.45;;;;;;;;;;5074565;28;20036;-37
2022/01/26 04:15:57;;;;;;;20.58;12.23;;;;;;;;;;5074855;28;20033;-37
2022/01/26 04:18:29;;;;;;;21.05;10.23;;;;;;;;;;5074540;28;20394;-37
2022/01/26 04:20:58;;;;;;;23.92;10.50;;;;;;;;;;5074515;28;20048;-37
2022/01/26 04:23:33;;;;;;;26.20;10.68;;;;;;;;;;5074642;28;20051;-37
2022/01/26 04:25:58;;;;;;;17.92;9.48;;;;;;;;;;5074454;28;20079;-37
2022/01/26 04:28:31;;;;;;;21.20;9.60;;;;;;;;;;5074717;28;20468;-37
2022/01/26 04:30:56;;;;;;;29.15;10.93;;;;;;;;;;5074452;28;20040;-38
2022/01/26 04:33:22;;;;;;;24.35;9.82;;;;;;;;;;5074305;28;20154;-37
2022/01/26 04:35:48;;;;;;;24.77;8.63;;;;;;;;;;5074125;28;20107;-37
2022/01/26 04:38:25;;;;;;;27.60;11.30;;;;;;;;;;5074151;28;20059;-37
2022/01/26 04:41:42;;;;;;;20.08;9.88;;;;;;;;;;5073967;28;20112;-37
2022/01/26 04:43:40;;;;;;;15.40;9.05;;;;;;;;;;5066457;28;20040;-37
2022/01/26 04:46:06;;;;;;;19.17;11.05;;;;;;;;;;5074048;28;20067;-37
2022/01/26 04:48:32;;;;;;;22.38;10.02;;;;;;;;;;5073963;28;20119;-37
2022/01/26 04:50:57;;;;;;;21.73;9.43;;;;;;;;;;5072703;28;20111;-37
2022/01/26 04:53:22;;;;;;;21.83;9.32;;;;;;;;;;5073892;28;20033;-37
2022/01/26 04:55:48;;;;;;;26.50;10.95;;;;;;;;;;5073889;28;20008;-37
2022/01/26 04:58:13;;;;;;;19.00;9.32;;;;;;;;;;5073782;28;20149;-37
2022/01/26 05:00:39;;;;;;;24.33;10.55;;;;;;;;;;5073671;28;20032;-37
2022/01/26 05:03:04;;;;;;;21.88;11.52;;;;;;;;;;5073830;28;20035;-37
2022/01/26 05:05:30;;;;;;;19.90;9.80;;;;;;;;;;5073846;28;20379;-37
2022/01/26 05:07:55;;;;;;;20.65;8.73;;;;;;;;;;5073574;28;20052;-37
2022/01/26 05:10:21;;;;;;;22.33;11.23;;;;;;;;;;5073831;28;20124;-37
2022/01/26 05:12:47;;;;;;;18.70;9.70;;;;;;;;;;5072972;28;20029;-37
2022/01/26 05:15:13;;;;;;;20.48;9.65;;;;;;;;;;5073838;28;20029;-37
2022/01/26 05:17:40;;;;;;;21.73;10.93;;;;;;;;;;5073708;28;20039;-37
2022/01/26 05:20:08;;;;;;;16.13;9.40;;;;;;;;;;5073413;28;20047;-37
2022/01/26 05:22:33;;;;;;;25.25;9.60;;;;;;;;;;5073225;28;20029;-37
2022/01/26 05:24:59;;;;;;;19.83;9.50;;;;;;;;;;5073284;28;20035;-37
2022/01/26 05:27:24;;;;;;;22.50;9.00;;;;;;;;;;5073350;28;20078;-37
2022/01/26 05:29:50;;;;;;;23.67;10.23;;;;;;;;;;5088804;28;20024;-37
2022/01/26 05:32:15;;;;;;;28.17;12.52;;;;;;;;;;5073489;28;20024;-37
2022/01/26 05:34:41;;;;;;;22.35;10.70;;;;;;;;;;5073046;28;20505;-37
2022/01/26 05:37:06;;;;;;;14.88;7.97;;;;;;;;;;5073107;28;20036;-37
2022/01/26 05:39:32;;;;;;;19.50;8.75;;;;;;;;;;5073026;28;20034;-37
2022/01/26 05:41:58;;;;;;;13.00;7.57;;;;;;;;;;5072730;28;20486;-37
2022/01/26 05:44:23;;;;;;;17.98;9.50;;;;;;;;;;5073261;28;20093;-37
2022/01/26 05:46:50;;;;;;;19.17;9.52;;;;;;;;;;5073175;28;20028;-37
2022/01/26 05:49:18;;;;;;;22.65;10.82;;;;;;;;;;5072869;28;20021;-37
2022/01/26 05:51:46;;;;;;;23.15;8.88;;;;;;;;;;5072767;28;20056;-37
2022/01/26 05:54:12;;;;;;;18.20;8.63;;;;;;;;;;5073025;28;20035;-37
2022/01/26 05:56:37;;;;;;;26.83;11.10;;;;;;;;;;5072898;28;20032;-37
2022/01/26 05:59:03;;;;;;;24.75;10.60;;;;;;;;;;5071414;28;20024;-37
2022/01/26 06:01:29;;;;;;;24.73;11.00;;;;;;;;;;5072507;28;20036;-37
2022/01/26 06:03:54;;;;;;;21.92;9.18;;;;;;;;;;5072358;28;20024;-37
2022/01/26 06:06:19;;;;;;;17.48;8.85;;;;;;;;;;5072855;28;20123;-37
2022/01/26 06:08:45;;;;;;;19.00;9.70;;;;;;;;;;5072682;28;20111;-37
2022/01/26 06:11:10;;;;;;;17.15;9.00;;;;;;;;;;5072670;28;20435;-37
2022/01/26 06:13:36;;;;;;;16.33;8.02;;;;;;;;;;5072522;28;20021;-37
2022/01/26 06:16:01;;;;;;;17.25;9.82;;;;;;;;;;5072621;28;20028;-37
2022/01/26 06:18:26;;;;;;;18.35;8.02;;;;;;;;;;5072265;28;20099;-37
2022/01/26 06:20:52;;;;;;;15.77;9.15;;;;;;;;;;5072114;28;20085;-37
2022/01/26 06:23:19;;;;;;;22.50;9.98;;;;;;;;;;5071727;28;20027;-37
2022/01/26 06:25:45;;;;;;;17.45;9.57;;;;;;;;;;5071811;28;20083;-37
2022/01/26 06:28:13;;;;;;;14.90;8.60;;;;;;;;;;5072125;28;20052;-37
2022/01/26 06:30:39;;;;;;;20.92;8.77;;;;;;;;;;5072203;28;20387;-37
2022/01/26 06:33:05;;;;;;;25.73;10.65;;;;;;;;;;5071810;28;20074;-37
2022/01/26 06:35:30;;;;;;;20.55;8.63;;;;;;;;;;5072008;28;20025;-37
2022/01/26 06:37:56;;;;;;;22.88;10.38;;;;;;;;;;5072034;28;20577;-37
2022/01/26 06:40:23;;;;;;;25.00;10.55;;;;;;;;;;5072134;28;20040;-37
2022/01/26 06:42:55;;;;;;;21.48;9.13;;;;;;;;;;5071299;28;20040;-37
2022/01/26 06:45:25;;;;;;;25.20;11.55;;;;;;;;;;5071711;28;20044;-37
2022/01/26 06:50:19;;;;;;;22.88;9.38;;;;;;;;;;5071918;28;20035;-37
2022/01/26 06:52:46;;;;;;;19.73;10.93;;;;;;;;;;5071593;28;20475;-37
2022/01/26 06:55:15;;;;;;;16.10;8.18;;;;;;;;;;5071605;28;20497;-37
2022/01/26 06:57:41;;;;;;;21.52;9.40;;;;;;;;;;5071504;28;20032;-37
2022/01/26 07:00:07;;;;;;;18.33;9.13;;;;;;;;;;5071294;28;20036;-37
2022/01/26 07:02:32;;;;;;;22.25;9.50;;;;;;;;;;5071458;28;20024;-37
2022/01/26 07:04:58;;;;;;;30.83;15.38;;;;;;;;;;5071371;28;20479;-37
2022/01/26 07:07:23;;;;;;;14.82;7.38;;;;;;;;;;5071397;28;20016;-37
2022/01/26 07:09:49;;;;;;;20.38;10.52;;;;;;;;;;5086975;28;20437;-37
2022/01/26 07:12:14;;;;;;;17.25;9.20;;;;;;;;;;5071417;28;20021;-37
2022/01/26 07:22:52;;;;;;;24.80;9.88;;;;;;;;;;5071129;28;20055;-37
2022/01/26 07:25:17;;;;;;;16.13;9.02;;;;;;;;;;5071223;28;20478;-37
2022/01/26 07:27:43;;;;;;;24.88;10.02;;;;;;;;;;5071022;28;20021;-37
2022/01/26 07:30:09;;;;;;;22.75;10.05;;;;;;;;;;5071146;28;20021;-37
2022/01/26 07:32:36;;;;;;;19.95;9.80;;;;;;;;;;5071167;28;20029;-37
2022/01/26 07:35:02;;;;;;;19.98;8.13;;;;;;;;;;5071015;28;20029;-37
2022/01/26 07:37:28;;;;;;;15.07;8.65;;;;;;;;;;5071427;28;20430;-37
2022/01/26 07:42:27;;;;;;;14.95;8.70;;;;;;;;;;5071116;28;20162;-37
2022/01/26 07:44:53;;;;;;;21.80;9.82;;;;;;;;;;5070893;28;20066;-37
2022/01/26 07:47:18;;;;;;;16.20;8.27;;;;;;;;;;5071042;28;20094;-37
2022/01/26 07:49:44;;;;;;;21.63;9.30;;;;;;;;;;5071154;28;20039;-37
2022/01/26 07:52:10;;;;;;;20.00;7.53;;;;;;;;;;5071154;28;20105;-37
2022/01/26 07:54:36;;;;;;;19.92;9.27;;;;;;;;;;5069953;28;20206;-37
2022/01/26 07:57:01;;;;;;;25.27;9.88;;;;;;;;;;5071174;28;20033;-37
2022/01/26 07:59:27;;;;;;;21.80;8.75;;;;;;;;;;5086471;28;20436;-37
2022/01/26 08:01:53;;;;;;;19.63;9.63;;;;;;;;;;5071151;28;20025;-37
2022/01/26 08:04:19;;;;;;;12.95;7.05;;;;;;;;;;5070728;28;20078;-37
2022/01/26 08:06:44;;;;;;;15.77;7.85;;;;;;;;;;5071076;28;20043;-37
2022/01/26 08:09:10;;;;;;;20.90;9.00;;;;;;;;;;5070961;28;20100;-37
2022/01/26 08:11:36;;;;;;;17.63;9.57;;;;;;;;;;5069281;28;20498;-37
2022/01/26 08:14:02;;;;;;;16.70;8.25;;;;;;;;;;5070804;28;20130;-37
2022/01/26 08:16:27;;;;;;;16.63;7.72;;;;;;;;;;5071073;28;20086;-37
2022/01/26 08:18:53;;;;;;;17.95;8.55;;;;;;;;;;5070891;28;20476;-37
2022/01/26 08:21:19;;;;;;;19.08;9.13;;;;;;;;;;5070700;28;20463;-37
2022/01/26 08:23:45;;;;;;;17.88;8.02;;;;;;;;;;5070730;28;20024;-37
2022/01/26 08:26:11;;;;;;;28.63;9.18;;;;;;;;;;5070618;28;20549;-37
2022/01/26 08:28:40;;;;;;;19.20;8.98;;;;;;;;;;5070573;28;20029;-37
2022/01/26 08:31:05;;;;;;;18.27;8.50;;;;;;;;;;5070867;28;20028;-37
2022/01/26 08:33:31;;;;;;;20.80;9.73;;;;;;;;;;5070561;28;20437;-37
2022/01/26 08:35:56;;;;;;;27.42;10.05;;;;;;;;;;5070485;28;20022;-37
2022/01/26 08:38:23;;;;;;;25.83;9.80;;;;;;;;;;5070593;28;20059;-37
2022/01/26 08:40:49;;;;;;;17.67;8.80;;;;;;;;;;5070635;28;20017;-37
2022/01/26 08:43:14;;;;;;;21.98;8.77;;;;;;;;;;5070548;28;20388;-37
2022/01/26 08:45:40;;;;;;;17.65;8.90;;;;;;;;;;5070366;28;20051;-37
2022/01/26 08:48:06;;;;;;;20.70;9.50;;;;;;;;;;5073190;28;20033;-37
2022/01/26 08:50:32;;;;;;;19.38;9.85;;;;;;;;;;5074054;28;20045;-37
2022/01/26 08:52:57;;;;;;;14.88;8.50;;;;;;;;;;5074189;28;20474;-37
2022/01/26 08:55:22;;;;;;;30.15;9.77;;;;;;;;;;5074114;28;20085;-37
2022/01/26 08:57:48;;;;;;;14.80;8.82;;;;;;;;;;5073859;28;20486;-37
2022/01/26 09:00:16;;;;;;;24.80;10.18;;;;;;;;;;5073851;28;20033;-37
2022/01/26 09:02:42;;;;;;;17.42;7.80;;;;;;;;;;5073863;28;20028;-37
2022/01/26 09:05:08;;;;;;;22.35;7.28;;;;;;;;;;5074049;28;20384;-37
2022/01/26 09:07:34;;;;;;;16.42;7.68;;;;;;;;;;5073972;28;20158;-37
2022/01/26 09:10:02;;;;;;;13.52;8.60;;;;;;;;;;5073867;28;20032;-37
2022/01/26 09:12:29;;;;;;;22.63;10.48;;;;;;;;;;5073840;28;20126;-37
2022/01/26 09:14:54;;;;;;;18.05;8.77;;;;;;;;;;5072099;28;20488;-37
2022/01/26 09:17:20;;;;;;;22.73;9.57;;;;;;;;;;5073521;28;20017;-38
2022/01/26 09:19:47;;;;;;;21.38;8.90;;;;;;;;;;5073526;28;20059;-37
2022/01/26 09:22:13;;;;;;;17.73;8.10;;;;;;;;;;5073481;28;20016;-37
2022/01/26 09:24:41;;;;;;;17.35;9.35;;;;;;;;;;5073461;28;20048;-37
2022/01/26 09:27:06;;;;;;;23.58;9.35;;;;;;;;;;5088944;28;20008;-37
2022/01/26 09:29:32;;;;;;;23.48;9.65;;;;;;;;;;5073354;28;20082;-37
2022/01/26 09:31:58;;;;;;;20.60;7.75;;;;;;;;;;5073013;28;20017;-37
2022/01/26 09:34:26;;;;;;;25.50;10.00;;;;;;;;;;5073535;28;20057;-37
2022/01/26 09:36:52;;;;;;;23.73;9.93;;;;;;;;;;5073266;28;20375;-37
2022/01/26 09:39:18;;;;;;;18.10;8.38;;;;;;;;;;5073105;28;20033;-37
2022/01/26 09:41:44;;;;;;;17.95;8.18;;;;;;;;;;5072825;28;20596;-38
2022/01/26 09:44:10;;;;;;;17.50;9.07;;;;;;;;;;5072791;28;20105;-37
2022/01/26 09:46:35;;;;;;;20.17;9.55;;;;;;;;;;5073302;28;20037;-37
2022/01/26 09:49:01;;;;;;;10.57;5.45;;;;;;;;;;5073368;28;20483;-37
2022/01/26 09:51:27;;;;;;;19.92;9.18;;;;;;;;;;5073067;28;20040;-37
2022/01/26 09:54:02;;;;;;;17.92;9.40;;;;;;;;;;5071469;28;20435;-37
2022/01/26 09:56:28;;;;;;;17.77;8.15;;;;;;;;;;5073040;28;20029;-37
2022/01/26 09:58:53;;;;;;;19.55;8.13;;;;;;;;;;5071746;28;20040;-37
2022/01/26 10:01:19;;;;;;;17.17;8.50;;;;;;;;;;5072912;28;20040;-37
2022/01/26 10:03:45;;;;;;;17.45;7.22;;;;;;;;;;5072396;28;20028;-37
2022/01/26 10:06:24;;;;;;;17.33;7.70;;;;;;;;;;5072835;28;20115;-37
2022/01/26 10:08:57;;;;;;;17.83;9.45;;;;;;;;;;5072649;28;20112;-37
2022/01/26 10:17:22;;;;;;;16.25;7.15;;;;;;;;;;5072287;28;20115;-37
2022/01/26 10:19:53;;;;;;;16.45;7.30;;;;;;;;;;5072183;28;20590;-38
2022/01/26 10:22:24;;;;;;;13.70;6.90;;;;;;;;;;5072520;28;20036;-37
2022/01/26 10:24:50;;;;;;;14.43;7.80;;;;;;;;;;5071991;28;20105;-37
2022/01/26 10:27:15;;;;;;;22.08;8.00;;;;;;;;;;5072146;28;20021;-37
2022/01/26 10:29:45;;;;;;;13.93;6.72;;;;;;;;;;5072216;28;20033;-37
2022/01/26 10:32:11;;;;;;;18.35;9.00;;;;;;;;;;5072008;28;20032;-37
2022/01/26 10:34:37;;;;;;;14.82;8.38;;;;;;;;;;5071934;28;20025;-37
2022/01/26 10:37:04;;;;;;;18.33;8.68;;;;;;;;;;5071921;28;20039;-37
2022/01/26 10:39:43;;;;;;;11.05;6.07;;;;;;;;;;5071956;28;20505;-38
2022/01/26 10:42:12;;;;;;;15.43;6.22;;;;;;;;;;5071571;28;20055;-37
2022/01/26 10:44:47;;;;;;;24.23;7.45;;;;;;;;;;5072020;28;20510;-37
2022/01/26 10:47:15;;;;;;;15.73;7.28;;;;;;;;;;5071714;28;20041;-37
2022/01/26 10:54:49;;;;;;;20.52;9.18;;;;;;;;;;5071826;28;20021;-37
2022/01/26 10:57:15;;;;;;;4.80;3.65;;;;;;;;;;5071529;28;20383;-37
2022/01/26 10:59:48;;;;;;;13.00;7.63;;;;;;;;;;5071497;28;20115;-37
2022/01/26 11:02:20;;;;;;;14.90;7.25;;;;;;;;;;5071694;28;20110;-37
2022/01/26 11:04:46;;;;;;;16.50;7.17;;;;;;;;;;5071435;28;20052;-37
2022/01/26 11:07:12;;;;;;;14.63;7.05;;;;;;;;;;5071809;28;20028;-37
2022/01/26 11:09:39;;;;;;;14.02;7.22;;;;;;;;;;5071087;28;20051;-37
2022/01/26 11:12:12;;;;;;;16.65;8.05;;;;;;;;;;5071414;28;20027;-37
2022/01/26 11:14:47;;;;;;;20.70;7.93;;;;;;;;;;5071646;28;20031;-37
2022/01/26 11:17:31;;;;;;;19.85;7.20;;;;;;;;;;5071697;28;20032;-37
2022/01/26 11:19:58;;;;;;;13.77;5.20;;;;;;;;;;5071322;28;20029;-38
2022/01/26 11:22:29;;;;;;;15.23;6.38;;;;;;;;;;5071386;28;20017;-37
2022/01/26 11:24:55;;;;;;;12.63;6.28;;;;;;;;;;5071081;28;20398;-37
2022/01/26 11:27:21;;;;;;;16.70;6.88;;;;;;;;;;5071618;28;20099;-37
2022/01/26 11:29:50;;;;;;;10.48;6.13;;;;;;;;;;5071041;28;20028;-37
2022/01/26 11:32:22;;;;;;;17.10;7.93;;;;;;;;;;5071323;28;20024;-37
2022/01/26 11:34:49;;;;;;;15.52;7.00;;;;;;;;;;5071001;28;20035;-38
2022/01/26 11:37:17;;;;;;;16.75;7.50;;;;;;;;;;5071448;28;20430;-37
2022/01/26 11:45:17;;;;;;;17.83;5.90;;;;;;;;;;5071275;28;20040;-37
2022/01/26 11:47:56;;;;;;;13.38;6.65;;;;;;;;;;5071073;28;20017;-37
2022/01/26 11:50:21;;;;;;;19.27;5.85;;;;;;;;;;5071040;28;20032;-37
2022/01/26 11:53:02;;;;;;;12.55;6.50;;;;;;;;;;5070966;28;20024;-38
2022/01/26 11:55:34;;;;;;;13.20;5.55;;;;;;;;;;5086518;28;20123;-37
2022/01/26 11:58:07;;;;;;;11.52;5.75;;;;;;;;;;5070969;28;20025;-38
2022/01/26 12:03:27;;;;;;;13.13;6.13;;;;;;;;;;5054619;28;20032;-37
2022/01/26 12:05:56;;;;;;;19.33;6.80;;;;;;;;;;5070761;28;20040;-37
2022/01/26 12:08:32;;;;;;;11.52;5.55;;;;;;;;;;5071074;28;20415;-37
2022/01/26 12:10:58;;;;;;;9.98;5.22;;;;;;;;;;5070994;28;20031;-37
2022/01/26 12:13:25;;;;;;;18.67;8.05;;;;;;;;;;5070705;28;20751;-37
2022/01/26 12:15:55;;;;;;;9.13;4.55;;;;;;;;;;5071235;28;20036;-37
2022/01/26 12:42:12;;;;;;;16.52;5.03;;;;;;;;;;5073879;28;20052;-37
2022/01/26 12:44:37;;;;;;;11.10;5.72;;;;;;;;;;5074430;28;20268;-37
2022/01/26 12:47:03;;;;;;;11.23;3.65;;;;;;;;;;5074027;28;20360;-37
2022/01/26 12:49:31;;;;;;;18.65;6.88;;;;;;;;;;5074003;28;20120;-37
2022/01/26 12:51:56;;;;;;;11.10;4.63;;;;;;;;;;5073882;28;20021;-37
2022/01/26 12:54:22;;;;;;;12.90;6.30;;;;;;;;;;5073849;28;20028;-37
2022/01/26 12:56:50;;;;;;;14.52;5.30;;;;;;;;;;5074110;28;20082;-37
2022/01/26 12:59:19;;;;;;;10.50;6.00;;;;;;;;;;5073853;28;20032;-38
2022/01/26 13:01:46;;;;;;;14.68;6.65;;;;;;;;;;5074023;28;20024;-37
2022/01/26 13:04:13;;;;;;;12.40;6.57;;;;;;;;;;5073588;28;20478;-37
2022/01/26 13:06:45;;;;;;;12.00;5.00;;;;;;;;;;5073765;28;20021;-37
2022/01/26 13:09:18;;;;;;;9.32;5.28;;;;;;;;;;5074088;28;20033;-37
2022/01/26 13:11:45;;;;;;;10.32;5.13;;;;;;;;;;5073387;28;20407;-37
2022/01/26 13:14:18;;;;;;;14.35;6.18;;;;;;;;;;5073662;28;20027;-37
2022/01/26 13:22:36;;;;;;;17.58;6.03;;;;;;;;;;5073461;28;20064;-37
2022/01/26 13:25:30;;;;;;;13.60;6.65;;;;;;;;;;5073289;28;20044;-37
2022/01/26 13:31:02;;;;;;;11.13;5.95;;;;;;;;;;5073260;28;20041;-37
2022/01/26 13:36:52;;;;;;;13.18;5.78;;;;;;;;;;5073193;28;20379;-37
2022/01/26 13:44:55;;;;;;;13.63;6.85;;;;;;;;;;5072932;28;20490;-37
2022/01/26 13:47:42;;;;;;;11.27;5.10;;;;;;;;;;5074278;28;20511;-38
2022/01/26 13:52:35;;;;;;;11.55;5.70;;;;;;;;;;5073062;28;20403;-37
2022/01/26 13:55:21;;;;;;;13.23;5.10;;;;;;;;;;5072794;28;20418;-37
2022/01/26 14:00:41;;;;;;;18.13;6.25;;;;;;;;;;5063349;28;20044;-37
2022/01/26 14:03:09;;;;;;;16.65;6.88;;;;;;;;;;5073014;28;20421;-37
2022/01/26 14:05:35;;;;;;;11.40;5.43;;;;;;;;;;5072463;28;20093;-37
2022/01/26 14:08:01;;;;;;;12.25;5.47;;;;;;;;;;5072499;28;20500;-38
2022/01/26 14:10:27;;;;;;;14.13;6.50;;;;;;;;;;5072710;28;20040;-37
2022/01/26 14:12:53;;;;;;;11.85;5.25;;;;;;;;;;5072310;28;20029;-38
2022/01/26 14:15:27;;;;;;;10.32;5.22;;;;;;;;;;5072627;28;20165;-37
2022/01/26 14:18:07;;;;;;;13.30;6.63;;;;;;;;;;5072291;28;20115;-37
2022/01/26 14:23:43;;;;;;;14.52;7.38;;;;;;;;;;5072213;28;20024;-37
2022/01/26 14:26:08;;;;;;;6.50;3.70;;;;;;;;;;5072045;28;20448;-37
2022/01/26 14:28:36;;;;;;;11.35;5.90;;;;;;;;;;5072383;28;20037;-37
2022/01/26 15:51:03;;;;;;;8.35;5.28;;;;;;;;;;5071005;28;20059;-37
2022/01/26 16:04:23;;;;;;;9.20;4.93;;;;;;;;;;5075234;28;20452;-37
2022/01/26 17:25:34;;;;;;;8.07;4.70;;;;;;;;;;5073497;28;20275;-37
2022/01/26 18:04:06;;;;;;;16.83;7.47;;;;;;;;;;5072944;28;20394;-37
2022/01/26 18:07:17;;;;;;;9.40;5.65;;;;;;;;;;5072606;28;20063;-37
2022/01/26 18:26:30;;;;;;;13.35;6.72;;;;;;;;;;4993130;28;20038;-36
2022/01/26 18:50:13;;;;;;;15.38;5.90;;;;;;;;;;5068504;28;20559;-37
2022/01/26 18:52:38;;;;;;;13.07;6.00;;;;;;;;;;5068886;28;20115;-37
2022/01/26 18:55:05;;;;;;;21.17;6.95;;;;;;;;;;5068499;28;20085;-37
2022/01/26 18:57:31;;;;;;;12.60;6.70;;;;;;;;;;5068480;28;20029;-37
2022/01/26 18:59:56;;;;;;;13.63;6.93;;;;;;;;;;5068373;28;20029;-37
2022/01/26 19:02:24;;;;;;;15.55;6.45;;;;;;;;;;5068618;28;20132;-37
2022/01/26 19:04:49;;;;;;;11.35;6.90;;;;;;;;;;5068341;28;20040;-37
2022/01/26 19:07:15;;;;;;;16.48;7.53;;;;;;;;;;5068234;28;20573;-37
2022/01/26 19:09:45;;;;;;;15.43;6.88;;;;;;;;;;5068204;28;20028;-37
2022/01/26 19:12:13;;;;;;;12.18;7.07;;;;;;;;;;5067971;28;20052;-37
2022/01/26 19:14:43;;;;;;;11.10;5.13;;;;;;;;;;5068210;28;20031;-37
2022/01/26 19:22:42;;;;;;;7.75;5.38;;;;;;;;;;5067995;28;20533;-37
2022/01/26 19:25:08;;;;;;;28.00;7.07;;;;;;;;;;5067778;28;20086;-37
2022/01/26 19:52:01;;;;;;;12.52;7.25;;;;;;;;;;5063127;28;20029;-37
2022/01/26 19:54:26;;;;;;;15.88;7.55;;;;;;;;;;5054007;28;20029;-37
2022/01/26 19:56:52;;;;;;;11.75;6.47;;;;;;;;;;5054103;28;20025;-37
2022/01/26 19:59:17;;;;;;;14.35;6.93;;;;;;;;;;5054057;28;20104;-37
2022/01/26 20:01:43;;;;;;;12.40;4.90;;;;;;;;;;5053840;28;20056;-37
2022/01/26 20:04:09;;;;;;;17.25;7.00;;;;;;;;;;5052582;28;20036;-37
2022/01/26 20:06:35;;;;;;;17.77;7.45;;;;;;;;;;5053945;28;20029;-37
2022/01/26 20:09:13;;;;;;;17.02;6.95;;;;;;;;;;5053630;28;20029;-37
2022/01/26 20:11:43;;;;;;;13.85;6.65;;;;;;;;;;5053773;28;20036;-37
2022/01/26 20:14:14;;;;;;;16.67;7.78;;;;;;;;;;5053606;28;20032;-37
2022/01/26 20:16:40;;;;;;;16.50;6.88;;;;;;;;;;5053829;28;20112;-37
2022/01/26 20:19:06;;;;;;;14.07;7.10;;;;;;;;;;5053919;28;20467;-37
2022/01/26 20:21:32;;;;;;;12.10;6.50;;;;;;;;;;5052283;28;20131;-37
2022/01/26 20:23:58;;;;;;;17.55;8.23;;;;;;;;;;5052266;28;20128;-37
2022/01/26 20:26:23;;;;;;;16.33;7.15;;;;;;;;;;5053764;28;20098;-37
2022/01/26 20:28:49;;;;;;;21.67;9.27;;;;;;;;;;5053505;28;20379;-37
2022/01/26 20:31:21;;;;;;;21.02;8.40;;;;;;;;;;5053402;28;20082;-37
2022/01/26 20:33:47;;;;;;;20.33;8.45;;;;;;;;;;5053395;28;20032;-37
2022/01/26 20:36:14;;;;;;;18.02;6.95;;;;;;;;;;5053467;28;20154;-37
2022/01/26 20:38:40;;;;;;;21.45;8.93;;;;;;;;;;5053329;28;20528;-37
2022/01/26 20:41:05;;;;;;;14.82;7.10;;;;;;;;;;5052900;28;20080;-37
2022/01/26 20:43:32;;;;;;;16.58;7.28;;;;;;;;;;5053145;28;20036;-37
2022/01/26 20:46:00;;;;;;;14.55;7.28;;;;;;;;;;5053231;28;20393;-37
2022/01/26 20:48:25;;;;;;;19.00;7.38;;;;;;;;;;5053003;28;20505;-36
2022/01/26 20:50:51;;;;;;;15.23;8.07;;;;;;;;;;5052933;28;20024;-37
2022/01/26 20:53:17;;;;;;;16.13;7.80;;;;;;;;;;5053015;28;20517;-37
2022/01/26 20:55:42;;;;;;;16.98;9.35;;;;;;;;;;5053241;28;20028;-37
2022/01/26 20:58:08;;;;;;;16.60;6.53;;;;;;;;;;5052806;28;20029;-37
2022/01/26 21:00:34;;;;;;;13.73;6.95;;;;;;;;;;5052842;28;20033;-37
2022/01/26 21:02:59;;;;;;;15.75;7.88;;;;;;;;;;5052383;28;20088;-37
2022/01/26 21:05:29;;;;;;;12.60;7.15;;;;;;;;;;5052092;28;20028;-36
2022/01/26 21:07:55;;;;;;;18.88;7.35;;;;;;;;;;5052760;28;20086;-37
2022/01/26 21:10:21;;;;;;;14.52;7.03;;;;;;;;;;5052868;28;20017;-37
2022/01/26 21:12:46;;;;;;;12.30;6.70;;;;;;;;;;5051268;28;20071;-37
2022/01/26 21:15:12;;;;;;;15.52;6.72;;;;;;;;;;5052655;28;20029;-37
2022/01/26 21:17:39;;;;;;;18.00;8.02;;;;;;;;;;5051356;28;20025;-37
2022/01/26 21:20:06;;;;;;;16.30;7.65;;;;;;;;;;5051154;28;20036;-37
2022/01/26 21:22:31;;;;;;;20.15;8.90;;;;;;;;;;5052429;28;20033;-37
2022/01/26 21:24:57;;;;;;;19.25;7.90;;;;;;;;;;5052511;28;20017;-37
2022/01/26 21:27:22;;;;;;;14.60;7.55;;;;;;;;;;5052247;28;20513;-37
2022/01/26 21:29:48;;;;;;;14.55;7.53;;;;;;;;;;5052392;28;20017;-37
2022/01/26 21:32:13;;;;;;;16.70;7.40;;;;;;;;;;5052120;28;20382;-37
2022/01/26 21:34:39;;;;;;;20.45;8.55;;;;;;;;;;5052447;28;20368;-37
2022/01/26 21:37:05;;;;;;;16.98;8.55;;;;;;;;;;5052210;28;20084;-37
2022/01/26 21:39:31;;;;;;;18.20;7.80;;;;;;;;;;5052020;28;20021;-37
2022/01/26 21:41:56;;;;;;;18.27;8.38;;;;;;;;;;5051839;28;20092;-37
2022/01/26 21:44:22;;;;;;;17.40;7.45;;;;;;;;;;5052053;28;20341;-37
2022/01/26 21:46:47;;;;;;;14.13;8.15;;;;;;;;;;5052188;28;20033;-37
2022/01/26 21:49:14;;;;;;;22.20;7.97;;;;;;;;;;5051910;28;20075;-37
2022/01/26 21:51:39;;;;;;;15.80;8.80;;;;;;;;;;5051906;28;20124;-37
2022/01/26 21:54:05;;;;;;;13.73;7.55;;;;;;;;;;5051855;28;20100;-37